Impacts METAR Board INFO
IDs:

KSAN - San Diego Intl Arpt, CA, US

Updated at: 1400 UTC 15 Dec 2017
Potential Impact None Slight Moderate High
Time15/02Z 15/03Z 15/04Z 15/05Z 15/06Z 15/07Z 15/08Z 15/09Z 15/10Z 15/11Z 15/12Z 15/13Z 15/14Z
VIS10 10 10 10 10 10 10 10 10 10 9 10 10
CIG-- -- -- -- -- -- -- -- -- -- -- -- --
CoverFEWFEWFEWCLRCLRCLRCLRCLRCLRCLRCLRCLRCLR
FltCatVFRVFRVFRVFRVFRVFRVFRVFRVFRVFRVFRVFRVFR
WX--------------------------
WDir290120050030000250000110
WSpd6 3 0 3 0 4 0 0 3 0 0 0 3
WGst-- -- -- -- -- -- -- -- -- -- -- -- --
Raw hourly METARs
KSAN 150151Z 29006KT 10SM FEW250 17/04 A3004 RMK AO2 SLP171 T01670044
KSAN 150251Z 12003KT 10SM FEW250 17/04 A3004 RMK AO2 SLP173 T01720039 51017
KSAN 150351Z 00000KT 10SM FEW250 16/05 A3006 RMK AO2 SLP177 T01560050
KSAN 150451Z 05003KT 10SM CLR 14/04 A3007 RMK AO2 SLP183 T01440044
KSAN 150551Z 00000KT 10SM CLR 14/04 A3009 RMK AO2 SLP190 T01440044 10211 20133 53017
KSAN 150651Z 30004KT 10SM CLR 13/04 A3010 RMK AO2 SLP191 T01280044
KSAN 150751Z 00000KT 10SM CLR 13/01 A3010 RMK AO2 SLP191 T01280011 402280089
KSAN 150851Z 00000KT 10SM CLR 12/02 A3010 RMK AO2 SLP191 T01170017 51002
KSAN 150951Z 25003KT 10SM CLR 11/01 A3010 RMK AO2 SLP192 T01110011
KSAN 151051Z 00000KT 10SM CLR 11/01 A3010 RMK AO2 SLP193 T01110006
KSAN 151151Z 00000KT 9SM CLR 11/M01 A3010 RMK AO2 SLP193 T01061006 10144 20100 50001
KSAN 151251Z 00000KT 10SM CLR 11/02 A3010 RMK AO2 SLP191 T01060022
KSAN 151351Z 11003KT 10SM CLR 13/M03 A3011 RMK AO2 SLP195 T01331028